sensor_id;sensor_type;location;lat;lon;timestamp;P1;durP1;ratioP1;P2;durP2;ratioP2
31406;SDS011;18043;52.438;4.836;2022-09-09T00:02:02;8.15;;;3.35;;
31406;SDS011;18043;52.438;4.836;2022-09-09T00:04:42;7.20;;;4.07;;
31406;SDS011;18043;52.438;4.836;2022-09-09T00:07:21;8.10;;;2.92;;
31406;SDS011;18043;52.438;4.836;2022-09-09T00:10:05;7.97;;;3.75;;
31406;SDS011;18043;52.438;4.836;2022-09-09T00:12:51;10.70;;;3.65;;
31406;SDS011;18043;52.438;4.836;2022-09-09T00:15:31;9.68;;;3.90;;
31406;SDS011;18043;52.438;4.836;2022-09-09T00:18:15;7.80;;;3.50;;
31406;SDS011;18043;52.438;4.836;2022-09-09T00:20:55;9.60;;;3.55;;
31406;SDS011;18043;52.438;4.836;2022-09-09T00:23:35;10.15;;;4.07;;
31406;SDS011;18043;52.438;4.836;2022-09-09T00:26:14;8.40;;;3.65;;
31406;SDS011;18043;52.438;4.836;2022-09-09T00:28:55;7.00;;;4.28;;
31406;SDS011;18043;52.438;4.836;2022-09-09T00:31:36;9.55;;;3.90;;
31406;SDS011;18043;52.438;4.836;2022-09-09T00:34:10;5.97;;;3.80;;
31406;SDS011;18043;52.438;4.836;2022-09-09T00:36:46;9.45;;;4.38;;
31406;SDS011;18043;52.438;4.836;2022-09-09T00:39:24;8.13;;;3.85;;
31406;SDS011;18043;52.438;4.836;2022-09-09T00:42:08;12.32;;;5.03;;
31406;SDS011;18043;52.438;4.836;2022-09-09T00:44:51;6.85;;;5.10;;
31406;SDS011;18043;52.438;4.836;2022-09-09T00:47:40;13.43;;;7.70;;
31406;SDS011;18043;52.438;4.836;2022-09-09T00:50:29;11.38;;;5.78;;
31406;SDS011;18043;52.438;4.836;2022-09-09T00:53:19;13.70;;;6.07;;
31406;SDS011;18043;52.438;4.836;2022-09-09T00:56:04;11.60;;;6.55;;
31406;SDS011;18043;52.438;4.836;2022-09-09T00:58:47;17.40;;;7.07;;
31406;SDS011;18043;52.438;4.836;2022-09-09T01:01:34;13.13;;;7.88;;
31406;SDS011;18043;52.438;4.836;2022-09-09T01:04:07;12.95;;;7.32;;
31406;SDS011;18043;52.438;4.836;2022-09-09T01:06:46;16.58;;;8.63;;
31406;SDS011;18043;52.438;4.836;2022-09-09T01:09:25;16.80;;;7.15;;
31406;SDS011;18043;52.438;4.836;2022-09-09T01:12:09;13.27;;;8.93;;
31406;SDS011;18043;52.438;4.836;2022-09-09T01:14:49;19.15;;;9.68;;
31406;SDS011;18043;52.438;4.836;2022-09-09T01:17:28;13.25;;;8.27;;
31406;SDS011;18043;52.438;4.836;2022-09-09T01:20:06;12.52;;;7.65;;
31406;SDS011;18043;52.438;4.836;2022-09-09T01:22:52;23.30;;;10.27;;
31406;SDS011;18043;52.438;4.836;2022-09-09T01:26:07;22.08;;;10.00;;
31406;SDS011;18043;52.438;4.836;2022-09-09T01:28:47;20.85;;;9.65;;
31406;SDS011;18043;52.438;4.836;2022-09-09T01:31:23;16.02;;;9.98;;
31406;SDS011;18043;52.438;4.836;2022-09-09T01:34:00;13.93;;;8.50;;
31406;SDS011;18043;52.438;4.836;2022-09-09T01:36:37;17.48;;;9.98;;
31406;SDS011;18043;52.438;4.836;2022-09-09T01:39:15;20.95;;;10.85;;
31406;SDS011;18043;52.438;4.836;2022-09-09T01:41:49;21.13;;;10.18;;
31406;SDS011;18043;52.438;4.836;2022-09-09T01:44:21;17.30;;;10.43;;
31406;SDS011;18043;52.438;4.836;2022-09-09T01:46:55;21.23;;;11.25;;
31406;SDS011;18043;52.438;4.836;2022-09-09T01:49:28;21.45;;;12.90;;
31406;SDS011;18043;52.438;4.836;2022-09-09T01:52:01;17.98;;;11.15;;
31406;SDS011;18043;52.438;4.836;2022-09-09T01:54:34;14.75;;;11.45;;
31406;SDS011;18043;52.438;4.836;2022-09-09T01:57:11;23.52;;;11.27;;
31406;SDS011;18043;52.438;4.836;2022-09-09T01:59:52;22.23;;;12.73;;
31406;SDS011;18043;52.438;4.836;2022-09-09T02:02:36;19.15;;;12.25;;
31406;SDS011;18043;52.438;4.836;2022-09-09T02:05:17;25.67;;;12.93;;
31406;SDS011;18043;52.438;4.836;2022-09-09T02:08:03;24.35;;;14.95;;
31406;SDS011;18043;52.438;4.836;2022-09-09T02:10:41;24.42;;;14.23;;
31406;SDS011;18043;52.438;4.836;2022-09-09T02:13:21;24.55;;;12.77;;
31406;SDS011;18043;52.438;4.836;2022-09-09T02:15:55;27.38;;;16.05;;
31406;SDS011;18043;52.438;4.836;2022-09-09T02:18:32;22.35;;;14.68;;
31406;SDS011;18043;52.438;4.836;2022-09-09T02:21:09;26.50;;;15.75;;
31406;SDS011;18043;52.438;4.836;2022-09-09T02:23:44;21.52;;;12.85;;
31406;SDS011;18043;52.438;4.836;2022-09-09T02:26:22;22.20;;;15.25;;
31406;SDS011;18043;52.438;4.836;2022-09-09T02:28:56;27.08;;;15.05;;
31406;SDS011;18043;52.438;4.836;2022-09-09T02:31:32;23.90;;;15.55;;
31406;SDS011;18043;52.438;4.836;2022-09-09T02:34:06;24.98;;;15.60;;
31406;SDS011;18043;52.438;4.836;2022-09-09T02:36:42;24.63;;;15.45;;
31406;SDS011;18043;52.438;4.836;2022-09-09T02:39:16;30.17;;;16.42;;
31406;SDS011;18043;52.438;4.836;2022-09-09T02:41:49;17.80;;;13.98;;
31406;SDS011;18043;52.438;4.836;2022-09-09T02:44:23;23.88;;;15.45;;
31406;SDS011;18043;52.438;4.836;2022-09-09T02:47:00;29.25;;;16.17;;
31406;SDS011;18043;52.438;4.836;2022-09-09T02:49:49;18.05;;;14.10;;
31406;SDS011;18043;52.438;4.836;2022-09-09T02:52:33;24.58;;;14.05;;
31406;SDS011;18043;52.438;4.836;2022-09-09T02:55:18;19.60;;;12.00;;
31406;SDS011;18043;52.438;4.836;2022-09-09T02:57:58;25.80;;;14.40;;
31406;SDS011;18043;52.438;4.836;2022-09-09T03:00:36;24.25;;;13.95;;
31406;SDS011;18043;52.438;4.836;2022-09-09T03:03:09;22.70;;;13.40;;
31406;SDS011;18043;52.438;4.836;2022-09-09T03:05:43;20.83;;;13.80;;
31406;SDS011;18043;52.438;4.836;2022-09-09T03:08:16;19.95;;;13.73;;
31406;SDS011;18043;52.438;4.836;2022-09-09T03:10:48;19.15;;;13.95;;
31406;SDS011;18043;52.438;4.836;2022-09-09T03:13:24;22.02;;;14.57;;
31406;SDS011;18043;52.438;4.836;2022-09-09T03:15:58;27.50;;;16.17;;
31406;SDS011;18043;52.438;4.836;2022-09-09T03:18:30;27.77;;;15.93;;
31406;SDS011;18043;52.438;4.836;2022-09-09T03:21:13;19.58;;;14.13;;
31406;SDS011;18043;52.438;4.836;2022-09-09T03:23:45;22.00;;;13.52;;
31406;SDS011;18043;52.438;4.836;2022-09-09T03:26:18;17.20;;;10.18;;
31406;SDS011;18043;52.438;4.836;2022-09-09T03:28:50;14.38;;;10.68;;
31406;SDS011;18043;52.438;4.836;2022-09-09T03:31:24;24.05;;;14.40;;
31406;SDS011;18043;52.438;4.836;2022-09-09T03:34:00;21.98;;;12.90;;
31406;SDS011;18043;52.438;4.836;2022-09-09T03:36:32;17.48;;;12.63;;
31406;SDS011;18043;52.438;4.836;2022-09-09T03:39:05;19.77;;;12.50;;
31406;SDS011;18043;52.438;4.836;2022-09-09T03:41:37;30.80;;;15.23;;
31406;SDS011;18043;52.438;4.836;2022-09-09T03:44:10;25.35;;;13.35;;
31406;SDS011;18043;52.438;4.836;2022-09-09T03:46:43;22.92;;;14.27;;
31406;SDS011;18043;52.438;4.836;2022-09-09T03:49:16;22.30;;;13.02;;
31406;SDS011;18043;52.438;4.836;2022-09-09T03:51:50;19.35;;;13.15;;
31406;SDS011;18043;52.438;4.836;2022-09-09T03:54:22;18.83;;;13.27;;
31406;SDS011;18043;52.438;4.836;2022-09-09T03:56:55;19.45;;;11.65;;
31406;SDS011;18043;52.438;4.836;2022-09-09T03:59:28;23.23;;;11.50;;
31406;SDS011;18043;52.438;4.836;2022-09-09T04:02:01;26.70;;;14.13;;
31406;SDS011;18043;52.438;4.836;2022-09-09T04:04:35;22.00;;;12.32;;
31406;SDS011;18043;52.438;4.836;2022-09-09T04:07:07;29.88;;;14.73;;
31406;SDS011;18043;52.438;4.836;2022-09-09T04:09:42;20.35;;;12.63;;
31406;SDS011;18043;52.438;4.836;2022-09-09T04:12:14;21.83;;;14.05;;
31406;SDS011;18043;52.438;4.836;2022-09-09T04:14:48;26.98;;;13.15;;
31406;SDS011;18043;52.438;4.836;2022-09-09T04:17:21;21.90;;;13.05;;
31406;SDS011;18043;52.438;4.836;2022-09-09T04:19:54;24.35;;;14.55;;
31406;SDS011;18043;52.438;4.836;2022-09-09T04:22:27;27.13;;;15.23;;
31406;SDS011;18043;52.438;4.836;2022-09-09T04:24:59;25.65;;;13.75;;
31406;SDS011;18043;52.438;4.836;2022-09-09T04:27:32;15.38;;;10.20;;
31406;SDS011;18043;52.438;4.836;2022-09-09T04:30:05;18.85;;;12.05;;
31406;SDS011;18043;52.438;4.836;2022-09-09T04:32:40;20.00;;;12.70;;
31406;SDS011;18043;52.438;4.836;2022-09-09T04:35:12;19.33;;;12.60;;
31406;SDS011;18043;52.438;4.836;2022-09-09T04:40:18;12.03;;;8.83;;
31406;SDS011;18043;52.438;4.836;2022-09-09T04:42:52;17.52;;;10.70;;
31406;SDS011;18043;52.438;4.836;2022-09-09T04:45:25;20.02;;;9.57;;
31406;SDS011;18043;52.438;4.836;2022-09-09T04:47:59;19.65;;;11.90;;
31406;SDS011;18043;52.438;4.836;2022-09-09T04:50:32;26.80;;;12.20;;
31406;SDS011;18043;52.438;4.836;2022-09-09T04:53:05;20.15;;;10.32;;
31406;SDS011;18043;52.438;4.836;2022-09-09T04:55:37;25.40;;;12.05;;
31406;SDS011;18043;52.438;4.836;2022-09-09T04:58:10;19.42;;;10.88;;
31406;SDS011;18043;52.438;4.836;2022-09-09T05:00:43;19.70;;;10.82;;
31406;SDS011;18043;52.438;4.836;2022-09-09T05:03:17;22.50;;;9.55;;
31406;SDS011;18043;52.438;4.836;2022-09-09T05:05:52;14.23;;;8.73;;
31406;SDS011;18043;52.438;4.836;2022-09-09T05:08:34;14.02;;;8.32;;
31406;SDS011;18043;52.438;4.836;2022-09-09T05:11:13;8.25;;;6.32;;
31406;SDS011;18043;52.438;4.836;2022-09-09T05:13:47;14.45;;;7.20;;
31406;SDS011;18043;52.438;4.836;2022-09-09T05:18:57;14.00;;;7.43;;
31406;SDS011;18043;52.438;4.836;2022-09-09T05:21:30;15.60;;;6.68;;
31406;SDS011;18043;52.438;4.836;2022-09-09T05:24:03;16.42;;;7.50;;
31406;SDS011;18043;52.438;4.836;2022-09-09T05:26:35;13.05;;;7.20;;
31406;SDS011;18043;52.438;4.836;2022-09-09T05:29:08;14.98;;;6.85;;
31406;SDS011;18043;52.438;4.836;2022-09-09T05:31:41;9.60;;;6.28;;
31406;SDS011;18043;52.438;4.836;2022-09-09T05:34:14;13.63;;;7.97;;
31406;SDS011;18043;52.438;4.836;2022-09-09T05:36:47;11.60;;;6.18;;
31406;SDS011;18043;52.438;4.836;2022-09-09T05:39:20;16.73;;;6.40;;
31406;SDS011;18043;52.438;4.836;2022-09-09T05:41:52;14.57;;;6.80;;
31406;SDS011;18043;52.438;4.836;2022-09-09T05:44:25;18.58;;;7.05;;
31406;SDS011;18043;52.438;4.836;2022-09-09T05:46:59;21.77;;;7.47;;
31406;SDS011;18043;52.438;4.836;2022-09-09T05:49:33;15.75;;;5.00;;
31406;SDS011;18043;52.438;4.836;2022-09-09T05:52:06;11.48;;;5.00;;
31406;SDS011;18043;52.438;4.836;2022-09-09T05:54:39;11.77;;;5.88;;
31406;SDS011;18043;52.438;4.836;2022-09-09T05:57:13;13.65;;;6.03;;
31406;SDS011;18043;52.438;4.836;2022-09-09T05:59:45;9.98;;;6.38;;
31406;SDS011;18043;52.438;4.836;2022-09-09T06:02:18;14.00;;;5.40;;
31406;SDS011;18043;52.438;4.836;2022-09-09T06:04:52;12.77;;;5.90;;
31406;SDS011;18043;52.438;4.836;2022-09-09T06:07:25;14.10;;;7.03;;
31406;SDS011;18043;52.438;4.836;2022-09-09T06:09:58;18.75;;;5.85;;
31406;SDS011;18043;52.438;4.836;2022-09-09T06:12:30;26.58;;;6.75;;
31406;SDS011;18043;52.438;4.836;2022-09-09T06:15:03;9.35;;;5.00;;
31406;SDS011;18043;52.438;4.836;2022-09-09T06:17:42;15.85;;;5.07;;
31406;SDS011;18043;52.438;4.836;2022-09-09T06:20:16;23.13;;;5.68;;
31406;SDS011;18043;52.438;4.836;2022-09-09T06:22:50;22.80;;;7.25;;
31406;SDS011;18043;52.438;4.836;2022-09-09T06:25:22;18.35;;;6.43;;
31406;SDS011;18043;52.438;4.836;2022-09-09T06:27:55;15.43;;;4.45;;
31406;SDS011;18043;52.438;4.836;2022-09-09T06:30:27;15.20;;;5.35;;
31406;SDS011;18043;52.438;4.836;2022-09-09T06:33:00;13.00;;;4.70;;
31406;SDS011;18043;52.438;4.836;2022-09-09T06:35:35;17.63;;;4.50;;
31406;SDS011;18043;52.438;4.836;2022-09-09T06:38:07;9.00;;;4.50;;
31406;SDS011;18043;52.438;4.836;2022-09-09T06:40:43;10.77;;;3.42;;
31406;SDS011;18043;52.438;4.836;2022-09-09T06:43:24;11.40;;;3.70;;
31406;SDS011;18043;52.438;4.836;2022-09-09T06:45:59;8.60;;;3.53;;
31406;SDS011;18043;52.438;4.836;2022-09-09T06:48:33;7.45;;;2.50;;
31406;SDS011;18043;52.438;4.836;2022-09-09T06:51:08;12.75;;;3.47;;
31406;SDS011;18043;52.438;4.836;2022-09-09T06:53:44;7.05;;;2.30;;
31406;SDS011;18043;52.438;4.836;2022-09-09T06:56:18;5.22;;;2.70;;
31406;SDS011;18043;52.438;4.836;2022-09-09T06:58:54;8.00;;;2.47;;
31406;SDS011;18043;52.438;4.836;2022-09-09T07:01:29;13.30;;;2.63;;
31406;SDS011;18043;52.438;4.836;2022-09-09T07:04:03;10.52;;;2.75;;
31406;SDS011;18043;52.438;4.836;2022-09-09T07:06:40;11.23;;;3.03;;
31406;SDS011;18043;52.438;4.836;2022-09-09T07:09:15;12.65;;;3.30;;
31406;SDS011;18043;52.438;4.836;2022-09-09T07:11:49;7.45;;;2.63;;
31406;SDS011;18043;52.438;4.836;2022-09-09T07:14:23;6.50;;;2.58;;
31406;SDS011;18043;52.438;4.836;2022-09-09T07:16:56;18.10;;;3.70;;
31406;SDS011;18043;52.438;4.836;2022-09-09T07:19:28;9.15;;;3.10;;
31406;SDS011;18043;52.438;4.836;2022-09-09T07:22:03;14.50;;;4.35;;
31406;SDS011;18043;52.438;4.836;2022-09-09T07:24:36;13.30;;;4.43;;
31406;SDS011;18043;52.438;4.836;2022-09-09T07:27:08;20.13;;;4.80;;
31406;SDS011;18043;52.438;4.836;2022-09-09T07:29:41;10.98;;;4.65;;
31406;SDS011;18043;52.438;4.836;2022-09-09T07:32:15;15.63;;;4.82;;
31406;SDS011;18043;52.438;4.836;2022-09-09T07:34:47;8.57;;;4.78;;
31406;SDS011;18043;52.438;4.836;2022-09-09T07:37:22;10.88;;;4.28;;
31406;SDS011;18043;52.438;4.836;2022-09-09T07:39:55;12.02;;;4.05;;
31406;SDS011;18043;52.438;4.836;2022-09-09T07:42:28;8.43;;;4.47;;
31406;SDS011;18043;52.438;4.836;2022-09-09T07:45:01;14.18;;;5.72;;
31406;SDS011;18043;52.438;4.836;2022-09-09T07:47:34;14.38;;;5.30;;
31406;SDS011;18043;52.438;4.836;2022-09-09T07:50:07;16.05;;;4.88;;
31406;SDS011;18043;52.438;4.836;2022-09-09T07:52:41;12.13;;;4.55;;
31406;SDS011;18043;52.438;4.836;2022-09-09T07:55:13;11.93;;;4.63;;
31406;SDS011;18043;52.438;4.836;2022-09-09T07:57:46;10.80;;;4.05;;
31406;SDS011;18043;52.438;4.836;2022-09-09T08:00:19;10.00;;;3.78;;
31406;SDS011;18043;52.438;4.836;2022-09-09T08:02:52;12.95;;;5.43;;
31406;SDS011;18043;52.438;4.836;2022-09-09T08:05:25;12.45;;;4.55;;
31406;SDS011;18043;52.438;4.836;2022-09-09T08:07:58;38.97;;;7.68;;
31406;SDS011;18043;52.438;4.836;2022-09-09T08:10:33;12.20;;;4.53;;
31406;SDS011;18043;52.438;4.836;2022-09-09T08:13:05;9.75;;;4.18;;
31406;SDS011;18043;52.438;4.836;2022-09-09T08:15:38;22.30;;;4.80;;
31406;SDS011;18043;52.438;4.836;2022-09-09T08:18:12;11.55;;;3.67;;
31406;SDS011;18043;52.438;4.836;2022-09-09T08:20:45;12.57;;;4.40;;
31406;SDS011;18043;52.438;4.836;2022-09-09T08:23:18;13.95;;;5.47;;
31406;SDS011;18043;52.438;4.836;2022-09-09T08:25:51;11.57;;;4.60;;
31406;SDS011;18043;52.438;4.836;2022-09-09T08:28:23;9.82;;;4.15;;
31406;SDS011;18043;52.438;4.836;2022-09-09T08:30:56;10.80;;;4.55;;
31406;SDS011;18043;52.438;4.836;2022-09-09T08:33:38;10.70;;;4.40;;
31406;SDS011;18043;52.438;4.836;2022-09-09T08:38:48;13.88;;;4.28;;
31406;SDS011;18043;52.438;4.836;2022-09-09T08:41:37;10.52;;;4.45;;
31406;SDS011;18043;52.438;4.836;2022-09-09T08:44:27;13.77;;;4.68;;
31406;SDS011;18043;52.438;4.836;2022-09-09T08:47:15;11.68;;;4.25;;
31406;SDS011;18043;52.438;4.836;2022-09-09T08:50:05;17.40;;;5.35;;
31406;SDS011;18043;52.438;4.836;2022-09-09T08:52:51;13.20;;;4.97;;
31406;SDS011;18043;52.438;4.836;2022-09-09T08:55:35;10.30;;;4.43;;
31406;SDS011;18043;52.438;4.836;2022-09-09T09:00:54;12.93;;;4.57;;
31406;SDS011;18043;52.438;4.836;2022-09-09T09:03:43;23.52;;;5.43;;
31406;SDS011;18043;52.438;4.836;2022-09-09T09:06:26;15.05;;;4.63;;
31406;SDS011;18043;52.438;4.836;2022-09-09T09:09:16;15.88;;;3.30;;
31406;SDS011;18043;52.438;4.836;2022-09-09T09:11:56;13.80;;;3.58;;
31406;SDS011;18043;52.438;4.836;2022-09-09T09:14:33;9.10;;;3.50;;
31406;SDS011;18043;52.438;4.836;2022-09-09T09:17:09;16.17;;;4.30;;
31406;SDS011;18043;52.438;4.836;2022-09-09T09:19:45;6.65;;;3.65;;
31406;SDS011;18043;52.438;4.836;2022-09-09T09:22:20;13.70;;;4.07;;
31406;SDS011;18043;52.438;4.836;2022-09-09T09:25:02;11.73;;;4.10;;
31406;SDS011;18043;52.438;4.836;2022-09-09T09:27:46;8.82;;;3.35;;
31406;SDS011;18043;52.438;4.836;2022-09-09T09:30:36;15.67;;;4.90;;
31406;SDS011;18043;52.438;4.836;2022-09-09T09:33:14;12.57;;;3.88;;
31406;SDS011;18043;52.438;4.836;2022-09-09T09:35:52;17.77;;;5.15;;
31406;SDS011;18043;52.438;4.836;2022-09-09T09:38:25;12.32;;;4.57;;
31406;SDS011;18043;52.438;4.836;2022-09-09T09:41:00;20.48;;;5.28;;
31406;SDS011;18043;52.438;4.836;2022-09-09T09:46:17;12.55;;;4.65;;
31406;SDS011;18043;52.438;4.836;2022-09-09T09:48:58;11.20;;;3.60;;
31406;SDS011;18043;52.438;4.836;2022-09-09T09:51:32;8.15;;;3.78;;
31406;SDS011;18043;52.438;4.836;2022-09-09T09:54:13;12.68;;;3.95;;
31406;SDS011;18043;52.438;4.836;2022-09-09T09:56:53;10.73;;;4.00;;
31406;SDS011;18043;52.438;4.836;2022-09-09T09:59:34;12.40;;;3.35;;
31406;SDS011;18043;52.438;4.836;2022-09-09T10:02:16;16.85;;;4.47;;
31406;SDS011;18043;52.438;4.836;2022-09-09T10:05:01;14.18;;;3.45;;
31406;SDS011;18043;52.438;4.836;2022-09-09T10:07:36;11.82;;;4.05;;
31406;SDS011;18043;52.438;4.836;2022-09-09T10:10:10;13.50;;;4.68;;
31406;SDS011;18043;52.438;4.836;2022-09-09T10:12:52;9.95;;;3.42;;
31406;SDS011;18043;52.438;4.836;2022-09-09T10:15:38;12.25;;;3.53;;
31406;SDS011;18043;52.438;4.836;2022-09-09T10:21:32;15.07;;;4.25;;
31406;SDS011;18043;52.438;4.836;2022-09-09T10:24:44;13.77;;;4.35;;
31406;SDS011;18043;52.438;4.836;2022-09-09T10:27:38;8.25;;;3.13;;
31406;SDS011;18043;52.438;4.836;2022-09-09T10:30:24;10.18;;;3.00;;
31406;SDS011;18043;52.438;4.836;2022-09-09T10:33:07;5.40;;;2.47;;
31406;SDS011;18043;52.438;4.836;2022-09-09T10:35:47;7.40;;;2.50;;
31406;SDS011;18043;52.438;4.836;2022-09-09T10:38:31;15.90;;;3.20;;
31406;SDS011;18043;52.438;4.836;2022-09-09T10:41:15;11.48;;;3.58;;
31406;SDS011;18043;52.438;4.836;2022-09-09T10:43:55;11.75;;;3.55;;
31406;SDS011;18043;52.438;4.836;2022-09-09T10:46:52;12.70;;;2.42;;
31406;SDS011;18043;52.438;4.836;2022-09-09T10:49:47;14.60;;;3.47;;
31406;SDS011;18043;52.438;4.836;2022-09-09T10:52:40;14.18;;;3.13;;
31406;SDS011;18043;52.438;4.836;2022-09-09T10:55:23;11.95;;;3.67;;
31406;SDS011;18043;52.438;4.836;2022-09-09T10:58:14;16.23;;;4.07;;
31406;SDS011;18043;52.438;4.836;2022-09-09T11:00:54;9.40;;;3.08;;
31406;SDS011;18043;52.438;4.836;2022-09-09T11:03:32;12.18;;;3.55;;
31406;SDS011;18043;52.438;4.836;2022-09-09T11:06:09;17.13;;;3.53;;
31406;SDS011;18043;52.438;4.836;2022-09-09T11:08:47;13.00;;;3.25;;
31406;SDS011;18043;52.438;4.836;2022-09-09T11:11:21;14.75;;;3.45;;
31406;SDS011;18043;52.438;4.836;2022-09-09T11:14:01;16.42;;;2.78;;
31406;SDS011;18043;52.438;4.836;2022-09-09T11:16:40;6.97;;;2.15;;
31406;SDS011;18043;52.438;4.836;2022-09-09T11:19:19;7.30;;;2.47;;
31406;SDS011;18043;52.438;4.836;2022-09-09T11:21:57;9.02;;;2.70;;
31406;SDS011;18043;52.438;4.836;2022-09-09T11:24:33;10.75;;;3.00;;
31406;SDS011;18043;52.438;4.836;2022-09-09T11:27:11;6.53;;;2.00;;
31406;SDS011;18043;52.438;4.836;2022-09-09T11:33:14;6.93;;;3.03;;
31406;SDS011;18043;52.438;4.836;2022-09-09T11:36:28;7.82;;;3.13;;
31406;SDS011;18043;52.438;4.836;2022-09-09T11:39:32;7.93;;;2.35;;
31406;SDS011;18043;52.438;4.836;2022-09-09T11:42:18;7.55;;;2.05;;
31406;SDS011;18043;52.438;4.836;2022-09-09T11:44:52;7.35;;;2.50;;
31406;SDS011;18043;52.438;4.836;2022-09-09T11:47:27;6.78;;;1.98;;
31406;SDS011;18043;52.438;4.836;2022-09-09T11:50:08;6.55;;;1.98;;
31406;SDS011;18043;52.438;4.836;2022-09-09T11:53:06;6.25;;;1.85;;
31406;SDS011;18043;52.438;4.836;2022-09-09T11:56:02;5.72;;;2.15;;
31406;SDS011;18043;52.438;4.836;2022-09-09T11:58:43;4.55;;;1.90;;
31406;SDS011;18043;52.438;4.836;2022-09-09T12:01:27;12.80;;;3.20;;
31406;SDS011;18043;52.438;4.836;2022-09-09T12:07:21;9.63;;;3.05;;
31406;SDS011;18043;52.438;4.836;2022-09-09T12:10:02;6.55;;;2.45;;
31406;SDS011;18043;52.438;4.836;2022-09-09T12:12:51;5.75;;;2.30;;
31406;SDS011;18043;52.438;4.836;2022-09-09T12:15:25;3.33;;;1.60;;
31406;SDS011;18043;52.438;4.836;2022-09-09T12:17:59;5.78;;;2.20;;
31406;SDS011;18043;52.438;4.836;2022-09-09T12:20:33;6.30;;;1.90;;
31406;SDS011;18043;52.438;4.836;2022-09-09T12:23:15;6.13;;;2.25;;
31406;SDS011;18043;52.438;4.836;2022-09-09T12:26:28;8.00;;;2.20;;
31406;SDS011;18043;52.438;4.836;2022-09-09T12:29:09;8.07;;;1.98;;
31406;SDS011;18043;52.438;4.836;2022-09-09T12:31:54;2.88;;;1.70;;
31406;SDS011;18043;52.438;4.836;2022-09-09T12:34:35;4.85;;;1.92;;
31406;SDS011;18043;52.438;4.836;2022-09-09T12:37:16;8.73;;;2.53;;
31406;SDS011;18043;52.438;4.836;2022-09-09T12:39:58;8.60;;;1.63;;
31406;SDS011;18043;52.438;4.836;2022-09-09T12:42:33;6.45;;;1.80;;
31406;SDS011;18043;52.438;4.836;2022-09-09T12:45:16;10.20;;;2.58;;
31406;SDS011;18043;52.438;4.836;2022-09-09T12:47:51;7.60;;;2.20;;
31406;SDS011;18043;52.438;4.836;2022-09-09T12:50:28;7.03;;;2.90;;
31406;SDS011;18043;52.438;4.836;2022-09-09T12:53:21;5.20;;;2.90;;
31406;SDS011;18043;52.438;4.836;2022-09-09T12:55:57;9.13;;;2.25;;
31406;SDS011;18043;52.438;4.836;2022-09-09T12:58:33;9.15;;;3.08;;
31406;SDS011;18043;52.438;4.836;2022-09-09T13:01:18;7.88;;;2.85;;
31406;SDS011;18043;52.438;4.836;2022-09-09T13:03:54;7.20;;;2.72;;
31406;SDS011;18043;52.438;4.836;2022-09-09T13:06:28;5.82;;;2.47;;
31406;SDS011;18043;52.438;4.836;2022-09-09T13:09:03;10.85;;;3.28;;
31406;SDS011;18043;52.438;4.836;2022-09-09T13:11:36;5.72;;;2.42;;
31406;SDS011;18043;52.438;4.836;2022-09-09T13:14:12;5.80;;;2.63;;
31406;SDS011;18043;52.438;4.836;2022-09-09T13:16:57;5.50;;;2.50;;
31406;SDS011;18043;52.438;4.836;2022-09-09T13:19:35;2.97;;;1.60;;
31406;SDS011;18043;52.438;4.836;2022-09-09T13:22:12;6.03;;;2.30;;
31406;SDS011;18043;52.438;4.836;2022-09-09T13:24:58;4.90;;;2.10;;
31406;SDS011;18043;52.438;4.836;2022-09-09T13:27:36;9.73;;;3.33;;
31406;SDS011;18043;52.438;4.836;2022-09-09T13:30:19;3.85;;;1.60;;
31406;SDS011;18043;52.438;4.836;2022-09-09T13:35:54;7.57;;;1.90;;
31406;SDS011;18043;52.438;4.836;2022-09-09T13:38:29;7.45;;;2.20;;
31406;SDS011;18043;52.438;4.836;2022-09-09T13:41:07;8.40;;;2.03;;
31406;SDS011;18043;52.438;4.836;2022-09-09T13:43:43;5.10;;;2.42;;
31406;SDS011;18043;52.438;4.836;2022-09-09T13:46:25;5.80;;;1.98;;
31406;SDS011;18043;52.438;4.836;2022-09-09T13:49:18;6.88;;;1.85;;
31406;SDS011;18043;52.438;4.836;2022-09-09T13:52:02;5.90;;;1.88;;
31406;SDS011;18043;52.438;4.836;2022-09-09T13:54:37;10.27;;;2.03;;
31406;SDS011;18043;52.438;4.836;2022-09-09T13:57:14;8.35;;;2.03;;
31406;SDS011;18043;52.438;4.836;2022-09-09T13:59:49;5.85;;;1.90;;
31406;SDS011;18043;52.438;4.836;2022-09-09T14:02:24;4.03;;;1.60;;
31406;SDS011;18043;52.438;4.836;2022-09-09T14:04:58;7.13;;;2.15;;
31406;SDS011;18043;52.438;4.836;2022-09-09T14:07:31;4.25;;;2.20;;
31406;SDS011;18043;52.438;4.836;2022-09-09T14:10:04;3.67;;;1.60;;
31406;SDS011;18043;52.438;4.836;2022-09-09T14:12:38;6.63;;;1.88;;
31406;SDS011;18043;52.438;4.836;2022-09-09T14:15:11;6.63;;;2.33;;
31406;SDS011;18043;52.438;4.836;2022-09-09T14:17:45;4.47;;;1.92;;
31406;SDS011;18043;52.438;4.836;2022-09-09T14:20:20;3.63;;;1.80;;
31406;SDS011;18043;52.438;4.836;2022-09-09T14:22:53;8.60;;;1.50;;
31406;SDS011;18043;52.438;4.836;2022-09-09T14:25:28;6.28;;;1.80;;
31406;SDS011;18043;52.438;4.836;2022-09-09T14:28:01;11.63;;;1.80;;
31406;SDS011;18043;52.438;4.836;2022-09-09T14:30:33;9.23;;;2.90;;
31406;SDS011;18043;52.438;4.836;2022-09-09T14:33:08;8.60;;;2.50;;
31406;SDS011;18043;52.438;4.836;2022-09-09T14:35:46;8.50;;;2.53;;
31406;SDS011;18043;52.438;4.836;2022-09-09T14:38:19;2.58;;;1.58;;
31406;SDS011;18043;52.438;4.836;2022-09-09T14:40:52;3.88;;;1.60;;
31406;SDS011;18043;52.438;4.836;2022-09-09T14:43:25;7.68;;;2.00;;
31406;SDS011;18043;52.438;4.836;2022-09-09T14:48:35;4.25;;;1.83;;
31406;SDS011;18043;52.438;4.836;2022-09-09T14:51:12;2.75;;;1.48;;
31406;SDS011;18043;52.438;4.836;2022-09-09T14:53:47;5.93;;;1.95;;
31406;SDS011;18043;52.438;4.836;2022-09-09T14:56:23;5.13;;;2.83;;
31406;SDS011;18043;52.438;4.836;2022-09-09T14:58:59;7.65;;;2.00;;
31406;SDS011;18043;52.438;4.836;2022-09-09T15:01:32;12.43;;;2.83;;
31406;SDS011;18043;52.438;4.836;2022-09-09T15:04:05;4.18;;;2.50;;
31406;SDS011;18043;52.438;4.836;2022-09-09T15:06:39;4.38;;;1.80;;
31406;SDS011;18043;52.438;4.836;2022-09-09T15:09:14;4.47;;;2.35;;
31406;SDS011;18043;52.438;4.836;2022-09-09T15:11:47;4.38;;;2.00;;
31406;SDS011;18043;52.438;4.836;2022-09-09T15:14:20;8.85;;;2.22;;
31406;SDS011;18043;52.438;4.836;2022-09-09T15:16:53;8.90;;;1.98;;
31406;SDS011;18043;52.438;4.836;2022-09-09T15:19:26;7.47;;;2.85;;
31406;SDS011;18043;52.438;4.836;2022-09-09T15:22:01;7.80;;;2.13;;
31406;SDS011;18043;52.438;4.836;2022-09-09T15:24:35;4.57;;;2.17;;
31406;SDS011;18043;52.438;4.836;2022-09-09T15:29:40;3.78;;;1.70;;
31406;SDS011;18043;52.438;4.836;2022-09-09T15:32:14;9.15;;;3.17;;
31406;SDS011;18043;52.438;4.836;2022-09-09T15:34:46;8.63;;;2.13;;
31406;SDS011;18043;52.438;4.836;2022-09-09T15:37:24;5.90;;;1.65;;
31406;SDS011;18043;52.438;4.836;2022-09-09T15:39:56;5.75;;;2.42;;
31406;SDS011;18043;52.438;4.836;2022-09-09T15:42:31;8.98;;;2.03;;
31406;SDS011;18043;52.438;4.836;2022-09-09T15:45:03;6.35;;;2.22;;
31406;SDS011;18043;52.438;4.836;2022-09-09T15:47:37;8.52;;;2.28;;
31406;SDS011;18043;52.438;4.836;2022-09-09T15:50:10;6.03;;;1.88;;
31406;SDS011;18043;52.438;4.836;2022-09-09T15:52:44;9.00;;;2.42;;
31406;SDS011;18043;52.438;4.836;2022-09-09T15:55:16;4.28;;;1.58;;
31406;SDS011;18043;52.438;4.836;2022-09-09T15:57:49;5.85;;;2.55;;
31406;SDS011;18043;52.438;4.836;2022-09-09T16:00:22;11.43;;;2.72;;
31406;SDS011;18043;52.438;4.836;2022-09-09T16:02:55;5.55;;;2.85;;
31406;SDS011;18043;52.438;4.836;2022-09-09T16:05:27;8.60;;;2.33;;
31406;SDS011;18043;52.438;4.836;2022-09-09T16:08:01;7.80;;;2.58;;